• Join FlightAware (Why Join?)
  • Login
  • US Flag 
10:49AM EDT


 

Airport Tracker/Info


-or-


 

Live Flight TrackerFlight Track Log ✈ AWE2690 ✈ 04-Dec-2013 ✈ KMYR - KCLT

Flight Track Log - Related Links

Times and Time Zones

All times are in EST time to prevent confusion due to time zone crossing. See the AWE2690 flight status page for this flight to view local times or setup timezone preferences in your user account.

Time Position Orientation Groundspeed Altitude Reporting Facility
EST Latitude Longitude Course Direction KTS MPH feet Rate Location/Type
11:42AM 33.6672 -78.9797 312° West 222 255 5,300  Level Jacksonville Center
11:43AM 33.7244 -79.0122 335° Northwest 269 310 7,100 2,220 Climbing Jacksonville Center
11:44AM 33.9067 -79.2200 313° West  Level Estimated
11:44AM 33.7967 -79.0489 337° Northwest 276 318 9,800  Level Jacksonville Center
11:45AM 33.9634 -79.2932 270° West  Level Estimated
11:45AM 33.8617 -79.1261 315° West 290 334 10,800  Level Jacksonville Center
11:46AM 34.0200 -79.3665 312° West  Level Estimated
11:46AM 33.9247 -79.2161 310° West 323 372 13,500  Level Jacksonville Center
11:47AM 33.9878 -79.3086 309° West 347 399 15,800 1,200 Climbing Jacksonville Center
11:48AM 34.0531 -79.4036 310° West 364 419 15,900  Climbing Jacksonville Center
11:49AM 34.1181 -79.4889 313° West 376 433 15,900  Level Jacksonville Center
11:50AM 34.1853 -79.5842 310° West 381 438 15,900  Level Jacksonville Center
11:51AM 34.2525 -79.6844 309° West 381 438 15,900 -540 Level Jacksonville Center
11:52AM 34.3197 -79.7825 310° West 387 445 14,900 -960 Descending Jacksonville Center
11:53AM 34.3844 -79.8758 310° West 381 438 14,000 -900 Descending Jacksonville Center
11:54AM 34.4450 -79.9669 309° West 365 420 13,100 -900 Descending Jacksonville Center
11:55AM 34.5033 -80.0556 309° West 353 406 12,200 -900 Descending Jacksonville Center
11:56AM 34.5658 -80.1444 311° West 353 406 11,400 -540 Descending Jacksonville Center
11:58AM 34.6508 -80.2764 308° West 328 377 11,000 -180 Descending Atlanta Center
11:59AM 34.7181 -80.3594 315° West 265 305 11,000 -180 Level Atlanta Center
12:00PM 34.7719 -80.4253 315° West 275 316 10,700 -660 Descending Atlanta Center
12:01PM 34.7722 -80.4986 270° West 220 253 9,700 -1,140 Descending Atlanta Center
12:02PM 34.7531 -80.5653 251° West 210 242 8,600 -1,440 Descending Atlanta Center
12:03PM 34.7467 -80.6336 264° West 205 236 7,000 -1,800 Descending Atlanta Center
12:04PM 34.7383 -80.7072 262° West 204 235 5,000 -1,500 Descending Atlanta Center
12:05PM 34.7400 -80.7756 272° West 206 237 4,000 -540 Descending Atlanta Center
12:06PM 34.7586 -80.8406 289° West 209 241 4,000  Level Atlanta Center
12:07PM 34.7867 -80.8825 309° West 174 200 4,000  Level Atlanta Center
12:08PM 34.8353 -80.9008 343° North 175 201 4,000  Level Atlanta Center
12:09PM 34.8856 -80.9092 352° North 188 216 4,000  Level Atlanta Center
12:10PM 34.9378 -80.9122 357° North 187 215 4,000  Level Atlanta Center
12:11PM 34.9922 -80.9178 355° North 184 212 4,000 -60 Level Atlanta Center
12:12PM 35.0444 -80.9233 355° North 183 211 3,900 -600 Descending Atlanta Center
12:13PM 35.0947 -80.9267 357° North 179 206 2,800 -960 Descending Atlanta Center
12:14PM 35.1406 -80.9325 354° North 170 196 2,000 -840 Descending Atlanta Center
12:15PM 35.1803 -80.9361 356° North 142 163 1,200 -840 Descending Atlanta Center